Time;durP1;ratioP1;P1;durP2;ratioP2;P2;SDS_P1;SDS_P2;PMS_P1;PMS_P2;Temp;Humidity;BMP_temperature;BMP_pressure;BME280_temperature;BME280_humidity;BME280_pressure;Samples;Min_cycle;Max_cycle;Signal;HPM_P1;HPM_P2
2023/04/20 00:00:13;;;;;;;2.70;1.50;;;;;;;;;;5053374;28;20046;-69
2023/04/20 00:02:39;;;;;;;2.45;1.50;;;;;;;;;;5053299;28;20075;-69
2023/04/20 00:05:08;;;;;;;3.08;1.80;;;;;;;;;;5084272;28;20101;-69
2023/04/20 00:07:34;;;;;;;4.85;2.10;;;;;;;;;;5053211;28;20436;-70
2023/04/20 00:10:00;;;;;;;;;;;;;;;;;;5071422;28;20040;-70
2023/04/20 00:12:26;;;;;;;2.20;1.40;;;;;;;;;;5083196;28;19960;-70
2023/04/20 00:14:52;;;;;;;4.03;1.40;;;;;;;;;;5069726;28;20116;-70
2023/04/20 00:17:19;;;;;;;2.35;1.40;;;;;;;;;;5074762;28;20052;-70
2023/04/20 00:19:45;;;;;;;3.40;1.70;;;;;;;;;;5090127;28;20052;-70
2023/04/20 00:22:11;;;;;;;5.05;1.70;;;;;;;;;;5071976;28;20061;-70
2023/04/20 00:24:37;;;;;;;3.15;1.70;;;;;;;;;;5069547;28;20076;-70
2023/04/20 00:27:03;;;;;;;3.60;1.70;;;;;;;;;;5070629;28;20051;-70
2023/04/20 00:29:29;;;;;;;4.47;1.60;;;;;;;;;;5082401;28;20497;-70
2023/04/20 00:31:55;;;;;;;4.18;1.30;;;;;;;;;;5069227;28;20052;-70
2023/04/20 00:34:21;;;;;;;2.78;1.30;;;;;;;;;;5083423;28;20044;-70
2023/04/20 00:36:47;;;;;;;2.47;1.38;;;;;;;;;;5069421;28;20419;-70
2023/04/20 00:39:14;;;;;;;4.47;1.70;;;;;;;;;;5073470;28;20117;-71
2023/04/20 00:41:41;;;;;;;3.72;1.50;;;;;;;;;;5088644;28;20125;-71
2023/04/20 00:44:10;;;;;;;3.13;1.42;;;;;;;;;;5064593;28;20044;-71
2023/04/20 00:46:36;;;;;;;2.92;1.60;;;;;;;;;;5071780;28;20048;-71
2023/04/20 00:49:02;;;;;;;2.75;1.33;;;;;;;;;;5053073;28;20037;-71
2023/04/20 00:51:29;;;;;;;2.90;1.60;;;;;;;;;;5054825;28;20151;-71
2023/04/20 00:53:55;;;;;;;2.80;1.58;;;;;;;;;;5080579;28;20051;-70
2023/04/20 00:56:21;;;;;;;3.28;1.33;;;;;;;;;;5068380;28;20106;-71
2023/04/20 00:58:47;;;;;;;3.80;1.50;;;;;;;;;;5075891;28;20090;-71
2023/04/20 01:01:17;;;;;;;3.17;1.25;;;;;;;;;;5059488;28;20361;-70
2023/04/20 01:03:46;;;;;;;3.20;1.55;;;;;;;;;;5068621;28;20044;-70
2023/04/20 01:06:15;;;;;;;4.15;1.40;;;;;;;;;;5068763;28;20048;-70
2023/04/20 01:08:45;;;;;;;2.50;1.00;;;;;;;;;;5068730;28;20090;-70
2023/04/20 01:11:11;;;;;;;4.07;1.48;;;;;;;;;;5068699;28;20044;-70
2023/04/20 01:13:37;;;;;;;4.50;1.40;;;;;;;;;;5054849;28;20131;-70
2023/04/20 01:16:03;;;;;;;3.83;1.40;;;;;;;;;;5063403;28;20037;-69
2023/04/20 01:18:40;;;;;;;3.72;1.42;;;;;;;;;;5078762;28;20080;-70
2023/04/20 01:21:06;;;;;;;2.38;1.25;;;;;;;;;;5080954;28;20076;-70
2023/04/20 01:23:34;;;;;;;1.67;1.05;;;;;;;;;;5070078;28;20488;-70
2023/04/20 01:26:00;;;;;;;4.90;1.45;;;;;;;;;;5068584;28;20094;-70
2023/04/20 01:28:26;;;;;;;2.95;1.40;;;;;;;;;;5102107;28;20161;-70
2023/04/20 01:30:52;;;;;;;4.10;1.52;;;;;;;;;;5066036;28;20041;-70
2023/04/20 01:33:18;;;;;;;6.65;1.58;;;;;;;;;;5059117;28;20507;-70
2023/04/20 01:35:44;;;;;;;3.83;1.50;;;;;;;;;;5063994;28;20105;-71
2023/04/20 01:38:16;;;;;;;2.55;1.20;;;;;;;;;;5052021;28;20044;-71
2023/04/20 01:40:42;;;;;;;2.70;1.10;;;;;;;;;;5068796;28;20083;-70
2023/04/20 01:43:09;;;;;;;3.10;1.45;;;;;;;;;;5068531;28;20051;-71
2023/04/20 01:45:35;;;;;;;2.78;1.30;;;;;;;;;;5068488;28;20044;-70
2023/04/20 01:48:01;;;;;;;4.43;1.30;;;;;;;;;;5047446;28;20396;-70
2023/04/20 01:50:27;;;;;;;3.78;1.40;;;;;;;;;;5059164;28;20044;-70
2023/04/20 01:52:53;;;;;;;2.63;1.27;;;;;;;;;;5052291;28;20694;-71
2023/04/20 01:55:19;;;;;;;3.63;1.38;;;;;;;;;;5068096;28;20056;-70
2023/04/20 01:57:45;;;;;;;3.03;1.30;;;;;;;;;;5068456;28;20377;-70
2023/04/20 02:00:12;;;;;;;2.30;1.15;;;;;;;;;;5067832;28;20127;-70
2023/04/20 02:02:38;;;;;;;2.45;1.30;;;;;;;;;;5057576;28;20044;-70
2023/04/20 02:05:04;;;;;;;3.33;1.58;;;;;;;;;;5066954;28;20108;-70
2023/04/20 02:07:30;;;;;;;;;;;;;;;;;;5077934;28;20483;-70
2023/04/20 02:09:56;;;;;;;8.32;1.85;;;;;;;;;;5086232;28;19917;-71
2023/04/20 02:12:23;;;;;;;1.90;1.20;;;;;;;;;;5089011;28;20059;-70
2023/04/20 02:14:49;;;;;;;3.47;1.67;;;;;;;;;;5069591;28;20086;-70
2023/04/20 02:17:15;;;;;;;3.42;1.20;;;;;;;;;;5078906;28;20071;-70
2023/04/20 02:19:41;;;;;;;4.18;1.83;;;;;;;;;;5076475;28;20127;-70
2023/04/20 02:22:07;;;;;;;3.70;1.40;;;;;;;;;;5071657;28;20079;-70
2023/04/20 02:24:33;;;;;;;3.25;1.27;;;;;;;;;;5073534;28;20106;-70
2023/04/20 02:27:01;;;;;;;3.13;1.13;;;;;;;;;;5072388;28;20506;-70
2023/04/20 02:29:27;;;;;;;2.72;1.30;;;;;;;;;;5063536;28;20049;-70
2023/04/20 02:31:53;;;;;;;2.75;1.33;;;;;;;;;;5065861;28;20102;-71
2023/04/20 02:34:19;;;;;;;2.85;1.40;;;;;;;;;;5071675;28;20048;-70
2023/04/20 02:36:46;;;;;;;4.97;1.55;;;;;;;;;;5055175;28;20124;-71
2023/04/20 02:39:12;;;;;;;;;;;;;;;;;;5067669;28;20076;-70
2023/04/20 02:41:38;;;;;;;4.25;1.65;;;;;;;;;;5061853;28;19966;-70
2023/04/20 02:44:04;;;;;;;3.88;1.60;;;;;;;;;;5071465;28;20055;-70
2023/04/20 02:46:30;;;;;;;4.65;1.90;;;;;;;;;;5071310;28;20076;-70
2023/04/20 02:48:56;;;;;;;4.07;1.60;;;;;;;;;;5071389;28;20033;-70
2023/04/20 02:51:22;;;;;;;4.47;1.70;;;;;;;;;;5071215;28;20044;-70
2023/04/20 02:53:48;;;;;;;3.95;1.65;;;;;;;;;;5058815;28;20049;-69
2023/04/20 02:56:14;;;;;;;3.25;1.70;;;;;;;;;;5055354;28;20061;-69
2023/04/20 02:58:40;;;;;;;3.00;1.52;;;;;;;;;;5071226;28;20055;-69
2023/04/20 03:01:06;;;;;;;4.47;1.55;;;;;;;;;;5068109;28;20073;-70
2023/04/20 03:03:32;;;;;;;3.55;1.63;;;;;;;;;;5060237;28;20051;-72
2023/04/20 03:05:59;;;;;;;4.53;1.67;;;;;;;;;;5070073;28;20127;-72
2023/04/20 03:08:25;;;;;;;4.35;1.60;;;;;;;;;;5057909;28;20472;-72
2023/04/20 03:10:51;;;;;;;5.57;1.80;;;;;;;;;;5054824;28;20047;-73
2023/04/20 03:13:17;;;;;;;4.55;1.50;;;;;;;;;;5067785;28;20090;-72
2023/04/20 03:15:43;;;;;;;6.15;1.70;;;;;;;;;;5062267;28;20048;-72
2023/04/20 03:18:09;;;;;;;9.73;2.00;;;;;;;;;;5071212;28;20055;-73
2023/04/20 03:20:35;;;;;;;6.82;1.83;;;;;;;;;;5072379;28;20040;-74
2023/04/20 03:23:01;;;;;;;6.88;2.40;;;;;;;;;;5056890;28;20052;-74
2023/04/20 03:25:28;;;;;;;3.78;1.63;;;;;;;;;;5070474;28;20893;-74
2023/04/20 03:27:54;;;;;;;4.13;1.83;;;;;;;;;;5071085;28;20048;-73
2023/04/20 03:30:20;;;;;;;4.15;2.10;;;;;;;;;;5056626;28;20048;-74
2023/04/20 03:32:46;;;;;;;5.68;1.90;;;;;;;;;;5070708;28;20082;-74
2023/04/20 03:35:12;;;;;;;2.83;1.60;;;;;;;;;;5070433;28;20044;-74
2023/04/20 03:37:38;;;;;;;2.75;1.63;;;;;;;;;;5064980;28;20128;-73
2023/04/20 03:40:09;;;;;;;6.40;1.80;;;;;;;;;;5062040;28;20109;-71
2023/04/20 03:42:36;;;;;;;4.07;1.73;;;;;;;;;;5070469;28;20112;-71
2023/04/20 03:45:02;;;;;;;4.55;1.80;;;;;;;;;;5070187;28;20040;-71
2023/04/20 03:47:28;;;;;;;5.38;1.45;;;;;;;;;;5070210;28;20058;-71
2023/04/20 03:49:54;;;;;;;3.65;1.67;;;;;;;;;;5061877;28;20052;-69
2023/04/20 03:52:20;;;;;;;6.47;1.60;;;;;;;;;;5066715;28;20045;-69
2023/04/20 03:54:46;;;;;;;5.82;1.73;;;;;;;;;;5040178;28;20057;-69
2023/04/20 03:57:12;;;;;;;5.68;1.73;;;;;;;;;;5057569;28;20049;-73
2023/04/20 03:59:38;;;;;;;5.03;1.80;;;;;;;;;;5054499;28;20472;-73
2023/04/20 04:02:04;;;;;;;3.30;1.70;;;;;;;;;;5047368;28;20041;-73
2023/04/20 04:04:30;;;;;;;3.05;1.50;;;;;;;;;;5067562;28;20071;-73
2023/04/20 04:06:57;;;;;;;2.97;1.65;;;;;;;;;;5080042;28;20071;-73
2023/04/20 04:09:25;;;;;;;3.97;1.60;;;;;;;;;;5069913;28;20040;-73
2023/04/20 04:11:51;;;;;;;4.05;1.75;;;;;;;;;;5080828;28;20036;-73
2023/04/20 04:14:17;;;;;;;4.53;1.35;;;;;;;;;;5069609;28;20045;-73
2023/04/20 04:16:43;;;;;;;4.38;1.80;;;;;;;;;;5103476;28;20500;-73
2023/04/20 04:19:09;;;;;;;3.00;1.50;;;;;;;;;;5069624;28;20408;-73
2023/04/20 04:21:35;;;;;;;3.33;1.52;;;;;;;;;;5072985;28;20071;-74
2023/04/20 04:24:02;;;;;;;3.42;1.80;;;;;;;;;;5078331;28;20044;-73
2023/04/20 04:26:30;;;;;;;3.67;1.67;;;;;;;;;;5069108;28;20101;-73
2023/04/20 04:28:57;;;;;;;4.28;1.45;;;;;;;;;;5069201;28;20407;-73
2023/04/20 04:31:23;;;;;;;;;;;;;;;;;;5052999;28;20048;-73
2023/04/20 04:33:50;;;;;;;2.65;1.40;;;;;;;;;;5069398;28;19920;-73
2023/04/20 04:36:16;;;;;;;5.30;1.50;;;;;;;;;;5103272;28;20075;-73
2023/04/20 04:38:45;;;;;;;;;;;;;;;;;;5070029;28;20482;-73
2023/04/20 04:41:12;;;;;;;4.57;1.92;;;;;;;;;;5062786;28;19917;-73
2023/04/20 04:43:38;;;;;;;6.13;1.65;;;;;;;;;;5062123;28;20488;-73
2023/04/20 04:46:14;;;;;;;4.10;1.40;;;;;;;;;;5069019;28;20040;-73
2023/04/20 04:48:41;;;;;;;2.40;1.30;;;;;;;;;;5103063;28;20041;-73
2023/04/20 04:51:07;;;;;;;4.05;1.40;;;;;;;;;;5069021;28;20072;-72
2023/04/20 04:53:33;;;;;;;;;;;;;;;;;;5059275;28;20049;-69
2023/04/20 04:55:59;;;;;;;3.10;1.40;;;;;;;;;;5084779;28;20380;-70
2023/04/20 04:58:25;;;;;;;4.50;1.75;;;;;;;;;;5069162;28;20051;-73
2023/04/20 05:00:52;;;;;;;3.90;1.77;;;;;;;;;;5068956;28;20044;-72
2023/04/20 05:03:18;;;;;;;3.45;1.65;;;;;;;;;;5068915;28;20051;-73
2023/04/20 05:05:44;;;;;;;4.38;1.77;;;;;;;;;;5056009;28;20053;-72
2023/04/20 05:08:11;;;;;;;;;;;;;;;;;;5054549;28;20432;-72
2023/04/20 05:10:37;;;;;;;6.72;1.83;;;;;;;;;;5052274;28;19962;-72
2023/04/20 05:13:03;;;;;;;3.97;1.50;;;;;;;;;;5065763;28;20444;-72
2023/04/20 05:15:29;;;;;;;3.90;1.38;;;;;;;;;;5058148;28;20450;-72
2023/04/20 05:17:55;;;;;;;5.00;1.75;;;;;;;;;;5068847;28;20101;-72
2023/04/20 05:20:21;;;;;;;3.08;1.45;;;;;;;;;;5068736;28;20048;-72
2023/04/20 05:22:47;;;;;;;4.82;1.67;;;;;;;;;;5068794;28;20570;-72
2023/04/20 05:25:14;;;;;;;3.97;1.88;;;;;;;;;;5052072;28;20044;-74
2023/04/20 05:27:40;;;;;;;;;;;;;;;;;;5069427;28;20119;-72
2023/04/20 05:30:06;;;;;;;2.97;1.40;;;;;;;;;;5068393;28;20301;-70
2023/04/20 05:32:32;;;;;;;7.00;1.73;;;;;;;;;;5068335;28;20040;-70
2023/04/20 05:34:59;;;;;;;3.90;1.50;;;;;;;;;;5051687;28;20060;-70
2023/04/20 05:37:26;;;;;;;3.40;1.60;;;;;;;;;;5068523;28;20510;-70
2023/04/20 05:39:52;;;;;;;4.28;1.77;;;;;;;;;;5102489;28;20056;-70
2023/04/20 05:42:18;;;;;;;3.58;1.55;;;;;;;;;;5066802;28;20048;-70
2023/04/20 05:44:44;;;;;;;5.50;1.75;;;;;;;;;;5059364;28;20520;-70
2023/04/20 05:47:10;;;;;;;3.63;1.33;;;;;;;;;;5072576;28;20128;-70
2023/04/20 05:49:37;;;;;;;3.63;1.75;;;;;;;;;;5066517;28;20076;-70
2023/04/20 05:52:03;;;;;;;;;;;;;;;;;;5065384;28;20423;-70
2023/04/20 05:54:29;;;;;;;2.92;1.50;;;;;;;;;;5071929;28;20012;-70
2023/04/20 05:56:58;;;;;;;3.38;1.70;;;;;;;;;;5073747;28;20516;-70
2023/04/20 05:59:25;;;;;;;4.75;1.60;;;;;;;;;;5069614;28;20485;-70
2023/04/20 06:01:51;;;;;;;3.45;1.67;;;;;;;;;;5060909;28;20499;-69
2023/04/20 06:04:17;;;;;;;5.38;1.90;;;;;;;;;;5071450;28;20044;-69
2023/04/20 06:06:43;;;;;;;4.60;1.70;;;;;;;;;;5058905;28;20097;-70
2023/04/20 06:09:10;;;;;;;3.92;1.65;;;;;;;;;;5072003;28;20037;-70
2023/04/20 06:11:36;;;;;;;3.22;1.52;;;;;;;;;;5055339;28;20044;-70
2023/04/20 06:14:02;;;;;;;4.40;1.58;;;;;;;;;;5071960;28;20036;-70
2023/04/20 06:16:28;;;;;;;3.55;1.40;;;;;;;;;;5054661;28;20044;-71
2023/04/20 06:18:54;;;;;;;4.43;1.77;;;;;;;;;;5061323;28;20106;-71
2023/04/20 06:21:20;;;;;;;3.97;1.67;;;;;;;;;;5071582;28;20041;-70
2023/04/20 06:23:46;;;;;;;3.50;1.52;;;;;;;;;;5055307;28;20043;-70
2023/04/20 06:26:12;;;;;;;3.17;1.60;;;;;;;;;;5072828;28;20170;-70
2023/04/20 06:28:38;;;;;;;4.43;1.60;;;;;;;;;;5071883;28;20049;-70
2023/04/20 06:31:10;;;;;;;4.20;1.70;;;;;;;;;;5071848;28;20032;-70
2023/04/20 06:33:36;;;;;;;3.47;1.55;;;;;;;;;;5071643;28;20158;-70
2023/04/20 06:36:05;;;;;;;4.25;1.67;;;;;;;;;;5088755;28;20033;-71
2023/04/20 06:38:31;;;;;;;6.10;1.80;;;;;;;;;;5071981;28;20052;-71
2023/04/20 06:41:00;;;;;;;4.85;1.95;;;;;;;;;;5071413;28;20040;-71
2023/04/20 06:43:27;;;;;;;4.32;1.80;;;;;;;;;;5071565;28;20052;-71
2023/04/20 06:45:53;;;;;;;7.95;1.90;;;;;;;;;;5071205;28;20068;-71
2023/04/20 06:48:19;;;;;;;4.18;1.90;;;;;;;;;;5071406;28;20044;-73
2023/04/20 06:50:49;;;;;;;4.45;2.22;;;;;;;;;;5057108;28;20519;-72
2023/04/20 06:53:15;;;;;;;6.25;2.00;;;;;;;;;;5071529;28;20043;-72
2023/04/20 06:55:41;;;;;;;6.13;2.10;;;;;;;;;;5069891;28;20088;-72
2023/04/20 06:58:07;;;;;;;4.35;1.80;;;;;;;;;;5070330;28;20056;-72
2023/04/20 07:00:34;;;;;;;3.05;1.77;;;;;;;;;;5069991;28;20051;-72
2023/04/20 07:03:01;;;;;;;3.80;1.80;;;;;;;;;;5065669;28;20036;-72
2023/04/20 07:05:27;;;;;;;5.28;2.05;;;;;;;;;;5060283;28;20054;-72
2023/04/20 07:07:54;;;;;;;4.40;2.20;;;;;;;;;;5067443;28;20037;-72
2023/04/20 07:10:20;;;;;;;4.68;2.88;;;;;;;;;;5058456;28;20057;-72
2023/04/20 07:12:47;;;;;;;;;;;;;;;;;;5053618;28;20047;-72
2023/04/20 07:15:13;;;;;;;5.75;2.20;;;;;;;;;;5050153;28;19969;-72
2023/04/20 07:17:39;;;;;;;5.30;2.15;;;;;;;;;;5062937;28;20047;-71
2023/04/20 07:20:09;;;;;;;7.07;2.10;;;;;;;;;;5069995;28;20029;-72
2023/04/20 07:22:36;;;;;;;3.47;1.90;;;;;;;;;;5041905;28;20319;-72
2023/04/20 07:25:02;;;;;;;;;;;;;;;;;;5067739;28;20064;-71
2023/04/20 07:27:29;;;;;;;3.92;1.95;;;;;;;;;;5083803;28;19973;-72
2023/04/20 07:29:58;;;;;;;4.22;2.33;;;;;;;;;;5052876;28;20041;-71
2023/04/20 07:32:24;;;;;;;4.20;1.83;;;;;;;;;;5056713;28;20341;-72
2023/04/20 07:34:50;;;;;;;4.28;1.65;;;;;;;;;;5069575;28;20048;-71
2023/04/20 07:37:16;;;;;;;3.63;2.00;;;;;;;;;;5070643;28;20067;-72
2023/04/20 07:39:42;;;;;;;4.05;2.08;;;;;;;;;;5069330;28;20044;-71
2023/04/20 07:42:08;;;;;;;3.92;1.80;;;;;;;;;;5068795;28;20131;-72
2023/04/20 07:44:35;;;;;;;2.88;1.88;;;;;;;;;;5055814;28;20055;-72
2023/04/20 07:47:02;;;;;;;2.65;1.90;;;;;;;;;;5069277;28;20553;-71
2023/04/20 07:49:28;;;;;;;3.72;2.17;;;;;;;;;;5052416;28;20045;-71
2023/04/20 07:51:54;;;;;;;7.55;2.40;;;;;;;;;;5103059;28;20040;-71
2023/04/20 07:54:21;;;;;;;3.05;1.90;;;;;;;;;;5026336;28;1148327;-72
2023/04/20 07:56:47;;;;;;;3.30;1.80;;;;;;;;;;5059067;28;20063;-71
2023/04/20 07:59:13;;;;;;;3.53;1.70;;;;;;;;;;5057296;28;20041;-71
2023/04/20 08:01:39;;;;;;;4.43;2.63;;;;;;;;;;5070196;28;20546;-71
2023/04/20 08:04:05;;;;;;;3.10;1.98;;;;;;;;;;5056721;28;20033;-71
2023/04/20 08:06:31;;;;;;;4.78;1.90;;;;;;;;;;5069503;28;20415;-71
2023/04/20 08:08:57;;;;;;;3.78;2.05;;;;;;;;;;5071190;28;20105;-71
2023/04/20 08:11:24;;;;;;;3.42;2.10;;;;;;;;;;5053041;28;20072;-71
2023/04/20 08:13:50;;;;;;;;;;;;;;;;;;5037387;28;20082;-71
2023/04/20 08:16:16;;;;;;;4.22;2.10;;;;;;;;;;5055299;28;19968;-71
2023/04/20 08:18:42;;;;;;;4.90;2.20;;;;;;;;;;5062216;28;20049;-71
2023/04/20 08:21:08;;;;;;;4.40;1.92;;;;;;;;;;5063000;28;20040;-71
2023/04/20 08:23:34;;;;;;;4.78;2.00;;;;;;;;;;5036525;28;20462;-71
2023/04/20 08:26:00;;;;;;;5.32;2.15;;;;;;;;;;5076814;28;20047;-71
2023/04/20 08:28:26;;;;;;;4.43;2.08;;;;;;;;;;5059011;28;20480;-70
2023/04/20 08:30:53;;;;;;;3.42;2.20;;;;;;;;;;5068970;28;20029;-71
2023/04/20 08:33:19;;;;;;;8.30;2.50;;;;;;;;;;5053280;28;20115;-71
2023/04/20 08:35:45;;;;;;;;;;;;;;;;;;5069328;28;20033;-71
2023/04/20 08:38:11;;;;;;;3.25;2.20;;;;;;;;;;5059552;28;20330;-71
2023/04/20 08:40:37;;;;;;;4.95;2.67;;;;;;;;;;5063525;28;20566;-71
2023/04/20 08:43:05;;;;;;;4.65;2.15;;;;;;;;;;5057199;28;20041;-72
2023/04/20 08:45:31;;;;;;;3.35;2.08;;;;;;;;;;5070372;28;20125;-72
2023/04/20 08:48:16;;;;;;;4.15;2.20;;;;;;;;;;5055674;28;20036;-72
2023/04/20 08:50:43;;;;;;;4.15;1.92;;;;;;;;;;5068759;28;20036;-71
2023/04/20 08:53:09;;;;;;;4.38;2.83;;;;;;;;;;5045607;28;20052;-71
2023/04/20 08:55:35;;;;;;;4.93;2.40;;;;;;;;;;5062258;28;20071;-71
2023/04/20 08:58:01;;;;;;;5.20;2.83;;;;;;;;;;5052191;28;20484;-72
2023/04/20 09:00:27;;;;;;;4.10;2.70;;;;;;;;;;5070842;28;20036;-71
2023/04/20 09:02:58;;;;;;;5.88;2.97;;;;;;;;;;5068736;28;20051;-72
2023/04/20 09:05:26;;;;;;;5.70;2.65;;;;;;;;;;5058883;28;20044;-71
2023/04/20 09:07:53;;;;;;;4.05;2.90;;;;;;;;;;5066551;28;20044;-72
2023/04/20 09:10:19;;;;;;;4.47;2.58;;;;;;;;;;5068896;28;20056;-72
2023/04/20 09:12:45;;;;;;;6.28;2.85;;;;;;;;;;5068761;28;20036;-73
2023/04/20 09:15:23;;;;;;;4.75;2.88;;;;;;;;;;5062052;28;20118;-72
2023/04/20 09:17:49;;;;;;;6.30;2.65;;;;;;;;;;5063021;28;20446;-73
2023/04/20 09:20:15;;;;;;;4.03;2.67;;;;;;;;;;5068965;28;20048;-73
2023/04/20 09:22:42;;;;;;;4.68;2.85;;;;;;;;;;5069297;28;20112;-72
2023/04/20 09:25:18;;;;;;;3.40;2.50;;;;;;;;;;5068469;28;20047;-73
2023/04/20 09:27:58;;;;;;;5.78;3.03;;;;;;;;;;5068796;28;20052;-71
2023/04/20 09:30:24;;;;;;;5.65;3.13;;;;;;;;;;5068648;28;20102;-72
2023/04/20 09:33:00;;;;;;;4.60;2.85;;;;;;;;;;5068738;28;20071;-72
2023/04/20 09:35:26;;;;;;;4.30;3.15;;;;;;;;;;5068423;28;20047;-71
2023/04/20 09:37:53;;;;;;;4.50;2.78;;;;;;;;;;5051974;28;20047;-71
2023/04/20 09:40:20;;;;;;;;;;;;;;;;;;5069346;28;20083;-71
2023/04/20 09:42:46;;;;;;;;;;;;;;;;;;5068919;28;19999;-72
2023/04/20 09:45:15;;;;;;;4.18;2.83;;;;;;;;;;5068587;28;19998;-72
2023/04/20 09:47:41;;;;;;;3.92;2.70;;;;;;;;;;5068363;28;20052;-72
2023/04/20 09:50:10;;;;;;;6.85;2.85;;;;;;;;;;5051736;28;20101;-70
2023/04/20 09:52:37;;;;;;;7.63;3.03;;;;;;;;;;5068439;28;20484;-69
2023/04/20 09:55:04;;;;;;;4.78;2.92;;;;;;;;;;5068132;28;20531;-70
2023/04/20 09:57:31;;;;;;;5.93;2.60;;;;;;;;;;5068270;28;20514;-70
2023/04/20 09:59:58;;;;;;;5.50;3.00;;;;;;;;;;5068597;28;20091;-70
2023/04/20 10:02:25;;;;;;;6.47;2.97;;;;;;;;;;5068476;28;20048;-70
2023/04/20 10:04:52;;;;;;;4.03;2.70;;;;;;;;;;5062791;28;20060;-71
2023/04/20 10:07:25;;;;;;;4.97;2.70;;;;;;;;;;5059786;28;20458;-69
2023/04/20 10:10:04;;;;;;;5.63;2.63;;;;;;;;;;5068373;28;20129;-70
2023/04/20 10:12:30;;;;;;;4.10;2.50;;;;;;;;;;5051574;28;20503;-70
2023/04/20 10:14:56;;;;;;;4.32;2.33;;;;;;;;;;5051557;28;20032;-70
2023/04/20 10:17:30;;;;;;;3.72;2.20;;;;;;;;;;5068356;28;20052;-70
2023/04/20 10:19:57;;;;;;;4.28;2.53;;;;;;;;;;5068263;28;20496;-70
2023/04/20 10:22:31;;;;;;;3.95;2.70;;;;;;;;;;5068245;28;20091;-71
2023/04/20 10:24:58;;;;;;;5.43;2.80;;;;;;;;;;5051312;28;20052;-72
2023/04/20 10:27:24;;;;;;;4.75;2.90;;;;;;;;;;5051350;28;20495;-70
2023/04/20 10:29:51;;;;;;;4.65;3.00;;;;;;;;;;5058686;28;20052;-71
2023/04/20 10:32:29;;;;;;;4.18;2.75;;;;;;;;;;5069224;28;20070;-72
2023/04/20 10:35:06;;;;;;;4.30;3.13;;;;;;;;;;5044117;28;20590;-71
2023/04/20 10:37:32;;;;;;;5.43;3.00;;;;;;;;;;5070685;28;20044;-72
2023/04/20 10:39:59;;;;;;;5.43;2.90;;;;;;;;;;5055243;28;20051;-72
2023/04/20 10:42:31;;;;;;;;;;;;;;;;;;5071901;28;20032;-72
2023/04/20 10:44:57;;;;;;;4.07;2.30;;;;;;;;;;5071286;28;20379;-73
2023/04/20 10:47:30;;;;;;;4.18;2.55;;;;;;;;;;5072878;28;20119;-72
2023/04/20 10:50:25;;;;;;;3.35;2.30;;;;;;;;;;5071430;28;20234;-72
2023/04/20 10:52:52;;;;;;;4.28;2.92;;;;;;;;;;5058076;28;20041;-72
2023/04/20 10:55:22;;;;;;;4.68;2.83;;;;;;;;;;5062334;28;20124;-72
2023/04/20 10:57:49;;;;;;;4.10;2.97;;;;;;;;;;5067937;28;20044;-73
2023/04/20 11:00:22;;;;;;;5.90;2.75;;;;;;;;;;5060843;28;20119;-71
2023/04/20 11:02:49;;;;;;;4.75;2.70;;;;;;;;;;5057118;28;20045;-71
2023/04/20 11:05:16;;;;;;;3.83;2.60;;;;;;;;;;5071312;28;20145;-71
2023/04/20 11:07:58;;;;;;;6.38;3.50;;;;;;;;;;5070914;28;20464;-72
2023/04/20 11:10:36;;;;;;;5.57;2.70;;;;;;;;;;5071296;28;20044;-72
2023/04/20 11:13:02;;;;;;;4.90;3.22;;;;;;;;;;5070846;28;20043;-72
2023/04/20 11:15:31;;;;;;;5.47;3.40;;;;;;;;;;5062484;28;20033;-72
2023/04/20 11:18:06;;;;;;;5.13;3.15;;;;;;;;;;5064939;28;20128;-72
2023/04/20 11:20:32;;;;;;;3.70;3.20;;;;;;;;;;5060888;28;20048;-72
2023/04/20 11:22:58;;;;;;;6.57;3.75;;;;;;;;;;5071165;28;20135;-73
2023/04/20 11:25:25;;;;;;;5.80;3.78;;;;;;;;;;5070516;28;20476;-71
2023/04/20 11:27:51;;;;;;;4.78;3.67;;;;;;;;;;5045448;28;20390;-71
2023/04/20 11:30:18;;;;;;;5.95;3.08;;;;;;;;;;5049274;28;20062;-70
2023/04/20 11:32:44;;;;;;;;;;;;;;;;;;5064119;28;20472;-69
2023/04/20 11:35:11;;;;;;;4.43;3.20;;;;;;;;;;5084198;28;19916;-72
2023/04/20 11:37:46;;;;;;;6.82;3.83;;;;;;;;;;5069804;28;20049;-72
2023/04/20 11:40:13;;;;;;;6.32;3.70;;;;;;;;;;5040839;28;20424;-72
2023/04/20 11:42:39;;;;;;;6.25;3.90;;;;;;;;;;5068704;28;20484;-72
2023/04/20 11:45:06;;;;;;;5.53;3.55;;;;;;;;;;5070726;28;20045;-72
2023/04/20 11:47:32;;;;;;;8.70;3.75;;;;;;;;;;5070339;28;20070;-72
2023/04/20 11:49:58;;;;;;;5.38;3.53;;;;;;;;;;5070372;28;20120;-72
2023/04/20 11:52:24;;;;;;;6.57;3.80;;;;;;;;;;5069413;28;20040;-72
2023/04/20 11:54:50;;;;;;;5.45;3.30;;;;;;;;;;5057039;28;20055;-72
2023/04/20 11:57:16;;;;;;;8.77;4.10;;;;;;;;;;5057069;28;20048;-73
2023/04/20 11:59:46;;;;;;;5.68;3.88;;;;;;;;;;5068995;28;20039;-73
2023/04/20 12:02:13;;;;;;;5.78;4.00;;;;;;;;;;5053687;28;20571;-73
2023/04/20 12:04:39;;;;;;;6.40;4.38;;;;;;;;;;5069919;28;20186;-72
2023/04/20 12:07:05;;;;;;;7.88;4.18;;;;;;;;;;5069850;28;20408;-72
2023/04/20 12:09:34;;;;;;;7.03;4.43;;;;;;;;;;5055702;28;20218;-72
2023/04/20 12:12:01;;;;;;;8.20;4.13;;;;;;;;;;5070187;28;20447;-72
2023/04/20 12:14:27;;;;;;;6.60;4.53;;;;;;;;;;5070973;28;20037;-72
2023/04/20 12:16:53;;;;;;;6.82;4.38;;;;;;;;;;5071454;28;20041;-71
2023/04/20 12:19:19;;;;;;;7.50;4.95;;;;;;;;;;5053167;28;20131;-72
2023/04/20 12:21:46;;;;;;;;;;;;;;;;;;5069992;28;20033;-72
2023/04/20 12:24:13;;;;;;;8.48;4.90;;;;;;;;;;5062154;28;19939;-72
2023/04/20 12:26:39;;;;;;;6.78;4.97;;;;;;;;;;5082482;28;20055;-72
2023/04/20 12:29:06;;;;;;;8.13;5.22;;;;;;;;;;5070202;28;20499;-72
2023/04/20 12:31:32;;;;;;;5.88;4.22;;;;;;;;;;5058332;28;20542;-72
2023/04/20 12:33:58;;;;;;;7.53;5.28;;;;;;;;;;5066523;28;20411;-72
2023/04/20 12:36:24;;;;;;;6.20;4.88;;;;;;;;;;5069235;28;20047;-72
2023/04/20 12:38:51;;;;;;;7.80;4.65;;;;;;;;;;5055165;28;20127;-72
2023/04/20 12:41:17;;;;;;;6.68;4.15;;;;;;;;;;5062101;28;20072;-72
2023/04/20 12:43:43;;;;;;;;;;;;;;;;;;5063377;28;20086;-72
2023/04/20 12:46:09;;;;;;;5.68;4.45;;;;;;;;;;5049463;28;20328;-72
2023/04/20 12:48:35;;;;;;;6.45;4.85;;;;;;;;;;5060641;28;20052;-72
2023/04/20 12:51:02;;;;;;;7.07;5.25;;;;;;;;;;5068882;28;20373;-72
2023/04/20 12:53:28;;;;;;;7.78;4.80;;;;;;;;;;5069114;28;20492;-72
2023/04/20 12:55:54;;;;;;;5.88;4.30;;;;;;;;;;5068714;28;20415;-72
2023/04/20 12:58:20;;;;;;;6.35;4.75;;;;;;;;;;5102909;28;20048;-72
2023/04/20 13:00:46;;;;;;;11.02;5.10;;;;;;;;;;5052326;28;20116;-70
2023/04/20 13:03:12;;;;;;;8.02;4.85;;;;;;;;;;5062903;28;20090;-70
2023/04/20 13:05:38;;;;;;;5.88;4.78;;;;;;;;;;5048740;28;20095;-69
2023/04/20 13:08:04;;;;;;;5.68;4.07;;;;;;;;;;5046383;28;20044;-70
2023/04/20 13:10:31;;;;;;;5.82;4.07;;;;;;;;;;5059236;28;20364;-70
2023/04/20 13:12:58;;;;;;;5.70;4.07;;;;;;;;;;5054773;28;20037;-70
2023/04/20 13:15:24;;;;;;;6.70;4.43;;;;;;;;;;5068892;28;20056;-69
2023/04/20 13:17:50;;;;;;;9.23;4.72;;;;;;;;;;5051998;28;20488;-69
2023/04/20 13:20:16;;;;;;;5.05;3.83;;;;;;;;;;5068672;28;20484;-70
2023/04/20 13:22:42;;;;;;;5.97;4.25;;;;;;;;;;5069019;28;20074;-70
2023/04/20 13:25:09;;;;;;;5.30;3.88;;;;;;;;;;5061414;28;20052;-71
2023/04/20 13:27:35;;;;;;;;;;;;;;;;;;5082743;28;20044;-71
2023/04/20 13:30:01;;;;;;;6.50;4.10;;;;;;;;;;5051909;28;19920;-70
2023/04/20 13:32:27;;;;;;;5.68;4.25;;;;;;;;;;5068927;28;20036;-69
2023/04/20 13:34:53;;;;;;;5.53;4.15;;;;;;;;;;5068402;28;20043;-69
2023/04/20 13:37:19;;;;;;;4.95;3.50;;;;;;;;;;5054530;28;20471;-69
2023/04/20 13:39:46;;;;;;;6.18;4.60;;;;;;;;;;5070026;28;20106;-70
2023/04/20 13:42:12;;;;;;;5.50;4.35;;;;;;;;;;5070157;28;20044;-70
2023/04/20 13:44:38;;;;;;;5.75;4.30;;;;;;;;;;5069958;28;20044;-69
2023/04/20 13:47:04;;;;;;;4.55;3.75;;;;;;;;;;5068476;28;20048;-69
2023/04/20 13:49:30;;;;;;;4.70;3.70;;;;;;;;;;5068285;28;20041;-70
2023/04/20 13:51:56;;;;;;;4.25;3.60;;;;;;;;;;5102264;28;20127;-68
2023/04/20 13:54:22;;;;;;;6.18;4.57;;;;;;;;;;5068624;28;20037;-69
2023/04/20 13:56:48;;;;;;;5.32;4.43;;;;;;;;;;5059207;28;20057;-70
2023/04/20 13:59:15;;;;;;;6.65;4.47;;;;;;;;;;5063605;28;20131;-69
2023/04/20 14:01:41;;;;;;;6.63;4.60;;;;;;;;;;5068424;28;20551;-70
2023/04/20 14:04:08;;;;;;;4.78;3.70;;;;;;;;;;5068946;28;20052;-70
2023/04/20 14:06:34;;;;;;;4.80;4.07;;;;;;;;;;5058062;28;20033;-70
2023/04/20 14:09:00;;;;;;;;;;;;;;;;;;5055938;28;20051;-70
2023/04/20 14:11:26;;;;;;;6.78;4.55;;;;;;;;;;5072231;28;19921;-70
2023/04/20 14:13:52;;;;;;;5.03;3.70;;;;;;;;;;5072188;28;20442;-70
2023/04/20 14:16:19;;;;;;;6.32;4.85;;;;;;;;;;5071863;28;20091;-70
2023/04/20 14:18:45;;;;;;;4.78;3.25;;;;;;;;;;5072204;28;20059;-70
2023/04/20 14:21:11;;;;;;;;;;;;;;;;;;5055818;28;20048;-70
2023/04/20 14:23:37;;;;;;;5.82;3.90;;;;;;;;;;5071801;28;20038;-70
2023/04/20 14:26:03;;;;;;;4.72;4.05;;;;;;;;;;5067963;28;20488;-70
2023/04/20 14:28:29;;;;;;;;;;;;;;;;;;5072573;28;20507;-70
2023/04/20 14:30:55;;;;;;;4.57;4.10;;;;;;;;;;5071823;28;19952;-70
2023/04/20 14:33:21;;;;;;;5.35;4.18;;;;;;;;;;5055520;28;20440;-70
2023/04/20 14:35:48;;;;;;;6.95;4.63;;;;;;;;;;5071919;28;20182;-70
2023/04/20 14:38:14;;;;;;;;;;;;;;;;;;5072141;28;20051;-70
2023/04/20 14:40:40;;;;;;;4.35;3.95;;;;;;;;;;5053789;28;19996;-70
2023/04/20 14:43:06;;;;;;;;;;;;;;;;;;5073806;28;20047;-70
2023/04/20 14:45:32;;;;;;;6.50;4.32;;;;;;;;;;5054274;28;20316;-70
2023/04/20 14:47:58;;;;;;;6.53;5.15;;;;;;;;;;5058327;28;20048;-70